Africa, Pennsylvania
Current Conditions -  °F | °C
As of 11:53 PM on Tuesday 21 Oct 2014 (Local Time) from KHGR Reporting Station
Overcast Overcast  
Wind Chill: 11°   Ceiling: 4500
Heat Index: 11°   Visibility: 8mi
Dew Point:   Wind: 3mph
Humidity: 89%   Direction: 320°NW
Pressure: 29.93"   Gusts: NA
Location:  39.8035°N, 77.9346°W
Report Text: KHGR 220353Z AUTO 32003KT 8SM OVC045 11/09 A2993 RMK AO2 SLP144 T01060089 TSNO
Loading
Personal Weather Stations






























Interactive Weather Map New forecast layout! Learn more

10-Day Weather Forecast

Advertisements
Track Severe Weather on mobile